Time;durP1;ratioP1;P1;durP2;ratioP2;P2;SDS_P1;SDS_P2;PMS_P1;PMS_P2;Temp;Humidity;BMP_temperature;BMP_pressure;BME280_temperature;BME280_humidity;BME280_pressure;Samples;Min_cycle;Max_cycle;Signal;HPM_P1;HPM_P2
2022/07/01 00:02:05;;;;;;;10.35;7.07;;;16.10;99.90;;;;;;5156790;27;20194;-53
2022/07/01 00:04:31;;;;;;;12.70;5.97;;;16.10;99.90;;;;;;5156764;27;20187;-54
2022/07/01 00:06:57;;;;;;;8.18;6.28;;;16.00;99.90;;;;;;5156628;27;20582;-53
2022/07/01 00:09:23;;;;;;;10.05;6.10;;;15.90;99.90;;;;;;5157006;27;20195;-53
2022/07/01 00:11:49;;;;;;;9.35;5.95;;;16.20;99.90;;;;;;5156965;27;20632;-54
2022/07/01 00:14:14;;;;;;;9.43;6.20;;;15.90;99.90;;;;;;5156527;27;20175;-54
2022/07/01 00:16:40;;;;;;;6.78;5.68;;;15.90;99.90;;;;;;5156514;27;20173;-54
2022/07/01 00:19:06;;;;;;;11.35;6.25;;;15.80;99.90;;;;;;5156541;27;20159;-53
2022/07/01 00:21:32;;;;;;;10.48;6.35;;;15.80;99.90;;;;;;5156579;27;20316;-54
2022/07/01 00:23:58;;;;;;;12.65;5.97;;;15.80;99.90;;;;;;5156235;27;20699;-53
2022/07/01 00:26:23;;;;;;;8.55;6.63;;;15.80;99.90;;;;;;5156635;27;20258;-54
2022/07/01 00:28:49;;;;;;;10.35;6.53;;;15.90;99.90;;;;;;5156645;27;20160;-54
2022/07/01 00:31:15;;;;;;;9.25;7.28;;;16.00;99.90;;;;;;5156313;27;20522;-53
2022/07/01 00:33:40;;;;;;;10.32;6.43;;;16.00;99.90;;;;;;5156327;27;20200;-54
2022/07/01 00:36:06;;;;;;;10.82;7.13;;;15.90;99.90;;;;;;5156340;27;20691;-53
2022/07/01 00:38:32;;;;;;;11.75;7.47;;;15.90;99.90;;;;;;5156171;27;20696;-54
2022/07/01 00:40:57;;;;;;;12.27;7.65;;;15.90;99.90;;;;;;5156116;27;20167;-54
2022/07/01 00:43:24;;;;;;;14.93;8.00;;;15.90;99.90;;;;;;5156427;27;20191;-53
2022/07/01 00:45:50;;;;;;;14.48;8.00;;;15.90;99.90;;;;;;5156294;27;20218;-53
2022/07/01 00:48:17;;;;;;;9.77;7.47;;;15.90;99.90;;;;;;5156030;27;20166;-53
2022/07/01 00:50:43;;;;;;;14.73;8.15;;;15.90;99.90;;;;;;5155830;27;20179;-53
2022/07/01 00:53:09;;;;;;;10.02;7.40;;;15.90;99.90;;;;;;5156191;27;20178;-54
2022/07/01 00:55:34;;;;;;;11.65;8.45;;;15.90;99.90;;;;;;5155555;27;20159;-53
2022/07/01 00:58:00;;;;;;;12.25;8.15;;;15.90;99.90;;;;;;5155838;27;20518;-53
2022/07/01 01:00:26;;;;;;;10.85;7.85;;;15.90;99.90;;;;;;5155695;27;20251;-54
2022/07/01 01:02:52;;;;;;;13.63;8.27;;;15.80;99.90;;;;;;5156253;27;20269;-53
2022/07/01 01:05:20;;;;;;;13.27;8.43;;;15.90;99.90;;;;;;5155489;27;20707;-53
2022/07/01 01:07:46;;;;;;;14.15;8.48;;;15.90;99.90;;;;;;5155654;27;20503;-53
2022/07/01 01:10:13;;;;;;;12.35;7.38;;;15.90;99.90;;;;;;5155574;27;20254;-53
2022/07/01 01:12:39;;;;;;;13.60;7.88;;;15.80;99.90;;;;;;5155853;27;20167;-53
2022/07/01 01:15:05;;;;;;;19.50;8.60;;;15.90;99.90;;;;;;5155500;27;20195;-53
2022/07/01 01:17:31;;;;;;;14.70;8.48;;;16.00;99.90;;;;;;5155412;27;20164;-53
2022/07/01 01:19:56;;;;;;;15.20;8.30;;;15.90;99.90;;;;;;5155590;27;20666;-54
2022/07/01 01:22:22;;;;;;;13.10;8.10;;;15.90;99.90;;;;;;5155596;27;20164;-53
2022/07/01 01:24:48;;;;;;;14.48;7.95;;;16.00;99.90;;;;;;5155134;27;20230;-53
2022/07/01 01:27:14;;;;;;;16.75;9.05;;;16.00;99.90;;;;;;5155218;27;20178;-54
2022/07/01 01:29:40;;;;;;;10.75;8.27;;;15.70;99.90;;;;;;5155201;27;20731;-54
2022/07/01 01:32:07;;;;;;;12.75;7.28;;;15.80;99.90;;;;;;5155218;27;20251;-53
2022/07/01 01:34:35;;;;;;;12.38;7.40;;;15.70;99.90;;;;;;5155047;27;20164;-54
2022/07/01 01:37:01;;;;;;;8.60;7.38;;;15.60;99.90;;;;;;5155051;27;20666;-53
2022/07/01 01:39:26;;;;;;;12.30;7.18;;;15.60;99.90;;;;;;5154990;27;20163;-54
2022/07/01 01:41:52;;;;;;;10.95;6.90;;;15.60;99.90;;;;;;5155240;27;20187;-54
2022/07/01 01:44:18;;;;;;;11.38;7.07;;;15.50;99.90;;;;;;5154909;27;20201;-53
2022/07/01 01:46:44;;;;;;;12.45;6.93;;;15.50;99.90;;;;;;5154828;27;20574;-53
2022/07/01 01:49:10;;;;;;;12.23;6.85;;;15.60;99.90;;;;;;5154819;27;20167;-53
2022/07/01 01:51:36;;;;;;;10.68;6.10;;;15.60;99.90;;;;;;5155028;27;20174;-53
2022/07/01 01:54:02;;;;;;;12.30;6.18;;;15.60;99.90;;;;;;5154710;27;20520;-53
2022/07/01 01:56:27;;;;;;;10.80;5.88;;;15.60;99.90;;;;;;5154570;27;20163;-53
2022/07/01 01:58:53;;;;;;;11.77;5.35;;;15.40;99.90;;;;;;5154918;27;20167;-54
2022/07/01 02:01:19;;;;;;;9.25;5.53;;;15.40;99.90;;;;;;5155093;27;20171;-53
2022/07/01 02:03:47;;;;;;;6.93;5.00;;;15.50;99.90;;;;;;5154637;27;20205;-54
2022/07/01 02:06:14;;;;;;;10.13;5.05;;;15.50;99.90;;;;;;5154384;27;20199;-53
2022/07/01 02:08:40;;;;;;;11.00;5.30;;;15.40;99.90;;;;;;5154464;27;20163;-53
2022/07/01 02:11:06;;;;;;;10.38;5.45;;;15.40;99.90;;;;;;5154428;27;20170;-53
2022/07/01 02:13:32;;;;;;;6.65;4.05;;;15.30;99.90;;;;;;5154344;27;20163;-53
2022/07/01 02:15:58;;;;;;;9.35;4.22;;;15.30;99.90;;;;;;5153701;27;20170;-54
2022/07/01 02:18:23;;;;;;;8.43;4.30;;;15.30;99.90;;;;;;5154574;27;20686;-53
2022/07/01 02:20:49;;;;;;;7.50;3.80;;;15.30;99.90;;;;;;5135990;27;20286;-53
2022/07/01 02:23:15;;;;;;;10.30;4.07;;;15.30;99.90;;;;;;5154122;27;20163;-54
2022/07/01 02:25:41;;;;;;;5.57;3.55;;;15.30;99.90;;;;;;5153897;27;20641;-53
2022/07/01 02:28:07;;;;;;;4.50;3.15;;;15.30;99.90;;;;;;5154080;27;20155;-54
2022/07/01 02:30:37;;;;;;;7.05;3.38;;;15.30;99.90;;;;;;5135512;27;20171;-53
2022/07/01 02:33:05;;;;;;;5.03;3.13;;;15.40;99.90;;;;;;5153995;27;20160;-53
2022/07/01 02:35:31;;;;;;;9.38;3.42;;;15.40;99.90;;;;;;5154172;27;20178;-53
2022/07/01 02:37:57;;;;;;;5.25;3.38;;;15.40;99.90;;;;;;5153878;27;20159;-53
2022/07/01 02:40:22;;;;;;;8.27;3.42;;;15.40;99.90;;;;;;5154337;27;20215;-54
2022/07/01 02:42:48;;;;;;;13.45;3.58;;;15.40;99.90;;;;;;5153918;27;20197;-54
2022/07/01 02:45:14;;;;;;;5.13;2.95;;;15.40;99.90;;;;;;5153766;27;20281;-54
2022/07/01 02:47:40;;;;;;;8.02;2.95;;;15.50;99.90;;;;;;5153756;27;20163;-54
2022/07/01 02:50:08;;;;;;;5.15;3.03;;;15.40;99.90;;;;;;5153698;27;20688;-54
2022/07/01 02:52:36;;;;;;;5.40;2.92;;;15.50;99.90;;;;;;5153719;27;20624;-53
2022/07/01 02:55:06;;;;;;;5.85;2.80;;;15.50;99.90;;;;;;5153744;27;20639;-54
2022/07/01 02:57:32;;;;;;;8.70;3.53;;;15.50;99.90;;;;;;5153649;27;20170;-54
2022/07/01 02:59:58;;;;;;;8.25;2.90;;;15.50;99.90;;;;;;5134953;27;20254;-54
2022/07/01 03:02:24;;;;;;;8.98;2.85;;;15.50;99.90;;;;;;5153803;27;20159;-54
2022/07/01 03:04:51;;;;;;;7.28;2.72;;;15.50;99.90;;;;;;5153720;27;20195;-53
2022/07/01 03:07:17;;;;;;;8.02;3.03;;;15.50;99.90;;;;;;5153382;27;20183;-54
2022/07/01 03:09:43;;;;;;;9.82;2.75;;;15.40;99.90;;;;;;5153534;27;20163;-54
2022/07/01 03:12:27;;;;;;;8.07;2.75;;;15.30;99.90;;;;;;5153512;27;20166;-53
2022/07/01 03:15:06;;;;;;;10.05;2.72;;;15.40;99.90;;;;;;5154008;27;20223;-53
2022/07/01 03:17:34;;;;;;;5.25;2.45;;;15.40;99.90;;;;;;5153345;27;20160;-53
2022/07/01 03:20:00;;;;;;;8.30;2.67;;;15.40;99.90;;;;;;5153398;27;20159;-53
2022/07/01 03:22:29;;;;;;;10.10;2.83;;;15.50;99.90;;;;;;5153435;27;20529;-53
2022/07/01 03:24:55;;;;;;;3.88;2.60;;;15.40;99.90;;;;;;5153266;27;20260;-53
2022/07/01 03:27:22;;;;;;;4.60;2.47;;;15.50;99.90;;;;;;5154679;27;20202;-53
2022/07/01 03:29:48;;;;;;;10.35;2.67;;;15.40;99.90;;;;;;5157546;27;20163;-53
2022/07/01 03:32:14;;;;;;;10.70;3.28;;;15.50;99.90;;;;;;5157464;27;20170;-53
2022/07/01 03:34:42;;;;;;;9.93;2.72;;;15.50;99.90;;;;;;5157419;27;20203;-54
2022/07/01 03:37:09;;;;;;;13.07;3.00;;;15.50;99.90;;;;;;5157376;27;20167;-54
2022/07/01 03:39:36;;;;;;;10.10;2.90;;;15.50;99.90;;;;;;5157374;27;20196;-54
2022/07/01 03:42:04;;;;;;;7.57;3.28;;;15.50;99.90;;;;;;5157362;27;20163;-54
2022/07/01 03:44:29;;;;;;;10.73;3.85;;;15.50;99.90;;;;;;5157145;27;20182;-53
2022/07/01 03:46:55;;;;;;;9.55;2.92;;;15.50;99.90;;;;;;5157199;27;20166;-53
2022/07/01 03:49:22;;;;;;;8.40;2.58;;;15.50;99.90;;;;;;5157387;27;20167;-54
2022/07/01 03:51:48;;;;;;;15.43;3.65;;;15.60;99.90;;;;;;5157067;27;20171;-53
2022/07/01 03:54:29;;;;;;;10.95;2.70;;;15.60;99.90;;;;;;5157506;27;20527;-54
2022/07/01 03:57:00;;;;;;;15.05;3.42;;;15.60;99.90;;;;;;5156761;27;20159;-54
2022/07/01 03:59:26;;;;;;;7.88;2.70;;;15.50;99.90;;;;;;5156933;27;20172;-53
2022/07/01 04:01:53;;;;;;;12.13;3.30;;;15.50;99.90;;;;;;5157232;27;20248;-53
2022/07/01 04:04:19;;;;;;;10.10;3.58;;;15.50;99.90;;;;;;5156778;27;20182;-54
2022/07/01 04:06:46;;;;;;;8.85;2.63;;;15.40;99.90;;;;;;5156848;27;20172;-54
2022/07/01 04:09:14;;;;;;;12.95;3.10;;;15.40;99.90;;;;;;5156766;27;20160;-54
2022/07/01 04:11:40;;;;;;;7.90;2.53;;;15.40;99.90;;;;;;5156746;27;20170;-53
2022/07/01 04:14:07;;;;;;;9.02;3.25;;;15.50;99.90;;;;;;5156933;27;20163;-53
2022/07/01 04:16:32;;;;;;;9.70;3.05;;;15.50;99.90;;;;;;5156583;27;20174;-53
2022/07/01 04:18:58;;;;;;;12.93;3.78;;;15.50;99.90;;;;;;5156519;27;20164;-53
2022/07/01 04:24:08;;;;;;;7.72;3.15;;;15.50;99.90;;;;;;5156506;27;20210;-53
2022/07/01 04:26:35;;;;;;;7.55;2.60;;;15.60;99.90;;;;;;5156679;27;20171;-53
2022/07/01 04:29:00;;;;;;;13.15;3.30;;;15.70;99.90;;;;;;5156721;27;20541;-53
2022/07/01 04:31:26;;;;;;;10.13;2.80;;;15.60;99.90;;;;;;5156610;27;20182;-53
2022/07/01 04:33:52;;;;;;;12.73;2.92;;;15.70;99.90;;;;;;5156640;27;20500;-53
2022/07/01 04:36:17;;;;;;;11.27;2.70;;;15.70;99.90;;;;;;5156302;27;20163;-53
2022/07/01 04:38:44;;;;;;;13.15;3.22;;;15.60;99.90;;;;;;5155704;27;20178;-53
2022/07/01 04:43:54;;;;;;;13.48;2.70;;;15.60;99.90;;;;;;5156510;27;20162;-53
2022/07/01 04:46:19;;;;;;;8.63;3.40;;;15.60;99.90;;;;;;5156382;27;20199;-53
2022/07/01 04:48:45;;;;;;;15.82;3.22;;;15.60;99.90;;;;;;5155839;27;20293;-53
2022/07/01 04:51:10;;;;;;;12.70;3.03;;;15.50;99.90;;;;;;5155981;27;20201;-53
2022/07/01 04:53:36;;;;;;;9.85;2.92;;;15.50;99.90;;;;;;5156060;27;20279;-53
2022/07/01 04:56:01;;;;;;;9.93;3.03;;;15.40;99.90;;;;;;5155920;27;20212;-53
2022/07/01 04:58:27;;;;;;;13.38;2.97;;;15.40;99.90;;;;;;5155917;27;20199;-53
2022/07/01 05:00:53;;;;;;;6.47;2.97;;;15.40;99.90;;;;;;5156110;27;20160;-54
2022/07/01 05:03:18;;;;;;;12.93;2.72;;;15.50;99.90;;;;;;5156031;27;20177;-53
2022/07/01 05:05:44;;;;;;;12.30;2.75;;;15.40;99.90;;;;;;5155571;27;20234;-54
2022/07/01 05:08:10;;;;;;;8.90;3.08;;;15.40;99.90;;;;;;5155712;27;20255;-53
2022/07/01 05:10:36;;;;;;;10.35;3.33;;;15.40;99.90;;;;;;5155734;27;20167;-53
2022/07/01 05:13:01;;;;;;;11.00;2.90;;;15.50;99.90;;;;;;5155814;27;20174;-53
2022/07/01 05:15:27;;;;;;;5.97;2.72;;;15.50;99.90;;;;;;5155458;27;20624;-54
2022/07/01 05:23:21;;;;;;;12.60;2.83;;;15.50;99.90;;;;;;5155654;27;20166;-53
2022/07/01 05:25:47;;;;;;;6.07;2.60;;;15.70;99.90;;;;;;5154796;27;20219;-53
2022/07/01 05:28:12;;;;;;;7.95;2.95;;;15.90;99.90;;;;;;5136775;27;20639;-53
2022/07/01 05:30:38;;;;;;;9.25;2.80;;;15.90;99.90;;;;;;5155184;27;20168;-53
2022/07/01 05:33:04;;;;;;;10.35;2.85;;;16.10;99.90;;;;;;5155126;27;20178;-53
2022/07/01 05:35:30;;;;;;;4.90;2.30;;;16.20;99.90;;;;;;5155167;27;20246;-54
2022/07/01 05:37:56;;;;;;;5.70;2.60;;;16.20;99.90;;;;;;5155264;27;20166;-54
2022/07/01 05:40:22;;;;;;;7.75;2.70;;;16.20;99.90;;;;;;5155541;27;20167;-54
2022/07/01 05:42:47;;;;;;;7.13;2.47;;;16.20;99.90;;;;;;5154803;27;20256;-53
2022/07/01 05:45:13;;;;;;;4.63;2.83;;;16.10;99.90;;;;;;5155077;27;20671;-53
2022/07/01 05:47:38;;;;;;;7.55;2.50;;;16.20;99.90;;;;;;5154849;27;20178;-53
2022/07/01 05:50:04;;;;;;;8.02;2.97;;;16.10;99.90;;;;;;5154677;27;20254;-53
2022/07/01 05:52:30;;;;;;;3.33;2.45;;;16.10;99.90;;;;;;5154036;27;20164;-53
2022/07/01 05:54:56;;;;;;;5.78;2.67;;;16.20;99.90;;;;;;5154663;27;20534;-53
2022/07/01 05:57:21;;;;;;;7.15;3.13;;;16.30;99.90;;;;;;5155189;27;20171;-53
2022/07/01 05:59:47;;;;;;;5.65;2.63;;;16.50;99.90;;;;;;5154679;27;20166;-53
2022/07/01 06:02:13;;;;;;;9.35;2.75;;;16.60;99.90;;;;;;5154625;27;20211;-53
2022/07/01 06:04:39;;;;;;;8.40;3.05;;;16.50;99.90;;;;;;5154736;27;20191;-53
2022/07/01 06:07:05;;;;;;;4.95;2.40;;;16.60;99.90;;;;;;5154398;27;20652;-54
2022/07/01 06:09:30;;;;;;;5.45;2.83;;;16.60;99.90;;;;;;5154397;27;20164;-54
2022/07/01 06:11:56;;;;;;;3.75;2.42;;;16.50;99.90;;;;;;5154414;27;20171;-53
2022/07/01 06:14:21;;;;;;;4.78;2.50;;;16.50;99.90;;;;;;5154881;27;20163;-54
2022/07/01 06:16:47;;;;;;;5.45;2.95;;;16.60;99.90;;;;;;5154365;27;20176;-54
2022/07/01 06:19:13;;;;;;;6.93;2.70;;;16.70;99.90;;;;;;5154257;27;20163;-53
2022/07/01 06:21:38;;;;;;;7.35;2.58;;;16.70;99.90;;;;;;5154230;27;20174;-54
2022/07/01 06:24:04;;;;;;;6.38;2.58;;;16.70;99.90;;;;;;5154158;27;20537;-53
2022/07/01 06:26:30;;;;;;;4.60;2.35;;;16.70;99.90;;;;;;5154094;27;20255;-53
2022/07/01 06:28:55;;;;;;;5.32;2.92;;;16.60;99.90;;;;;;5154333;27;20658;-53
2022/07/01 06:31:23;;;;;;;2.97;2.55;;;16.70;99.90;;;;;;5154584;27;20185;-53
2022/07/01 06:33:49;;;;;;;5.07;2.45;;;16.80;99.90;;;;;;5136031;27;20263;-53
2022/07/01 06:36:14;;;;;;;4.53;2.60;;;16.90;99.90;;;;;;5153994;27;20613;-54
2022/07/01 06:38:40;;;;;;;9.13;3.40;;;16.90;99.90;;;;;;5153981;27;20181;-54
2022/07/01 06:43:49;;;;;;;6.25;3.30;;;17.00;99.90;;;;;;5154186;27;20251;-54
2022/07/01 06:46:15;;;;;;;4.85;3.10;;;17.20;99.90;;;;;;5153727;27;20243;-54
2022/07/01 06:48:41;;;;;;;9.00;3.45;;;17.20;99.90;;;;;;5153760;27;20166;-54
2022/07/01 06:51:06;;;;;;;8.15;3.72;;;17.10;99.90;;;;;;5153818;27;20167;-54
2022/07/01 06:53:32;;;;;;;6.43;3.67;;;17.30;99.90;;;;;;5153709;27;20156;-54
2022/07/01 06:55:57;;;;;;;5.93;3.67;;;17.20;99.90;;;;;;5153733;27;20171;-54
2022/07/01 06:58:23;;;;;;;6.78;3.97;;;17.10;99.90;;;;;;5153982;27;20194;-54
2022/07/01 07:00:49;;;;;;;6.20;3.72;;;14.70;99.90;;;;;;5153867;27;20178;-54
2022/07/01 07:03:14;;;;;;;6.53;3.55;;;17.30;99.90;;;;;;5153219;27;20669;-54
2022/07/01 07:05:40;;;;;;;6.95;3.50;;;17.50;99.90;;;;;;5153392;27;20272;-54
2022/07/01 07:08:05;;;;;;;6.47;3.72;;;17.60;99.90;;;;;;5153508;27;20238;-54
2022/07/01 07:10:31;;;;;;;6.97;3.97;;;17.80;99.90;;;;;;5153515;27;20512;-54
2022/07/01 07:12:57;;;;;;;5.82;3.58;;;18.10;99.90;;;;;;5153571;27;20163;-54
2022/07/01 07:15:22;;;;;;;7.15;3.83;;;18.30;99.90;;;;;;5153758;27;20190;-54
2022/07/01 07:17:48;;;;;;;5.78;3.28;;;18.30;99.90;;;;;;5153446;27;20188;-54
2022/07/01 07:20:13;;;;;;;4.32;3.45;;;18.20;99.90;;;;;;5153425;27;20202;-54
2022/07/01 07:22:39;;;;;;;4.95;3.33;;;18.10;99.90;;;;;;5153340;27;20526;-54
2022/07/01 07:25:05;;;;;;;6.25;3.45;;;17.90;99.90;;;;;;5153157;27;20223;-54
2022/07/01 07:27:30;;;;;;;8.02;3.30;;;17.90;99.90;;;;;;5153384;27;20168;-54
2022/07/01 07:29:56;;;;;;;6.32;3.83;;;17.80;99.90;;;;;;5153371;27;20179;-54
2022/07/01 07:32:22;;;;;;;7.18;3.53;;;17.90;99.90;;;;;;5153717;27;20235;-53
2022/07/01 07:34:47;;;;;;;6.65;3.58;;;18.20;99.90;;;;;;5153534;27;20171;-54
2022/07/01 07:37:13;;;;;;;5.15;3.33;;;18.10;99.90;;;;;;5153251;27;20658;-54
2022/07/01 07:39:38;;;;;;;5.22;3.08;;;18.10;99.90;;;;;;5134725;27;20628;-54
2022/07/01 07:42:05;;;;;;;8.30;3.40;;;18.40;99.90;;;;;;5153197;27;20256;-54
2022/07/01 07:44:31;;;;;;;6.95;3.00;;;18.20;99.90;;;;;;5153073;27;20233;-54
2022/07/01 07:46:57;;;;;;;5.10;2.80;;;18.50;99.90;;;;;;5153088;27;20167;-54
2022/07/01 07:49:26;;;;;;;4.20;3.53;;;18.30;99.90;;;;;;5153489;27;20167;-54
2022/07/01 07:51:52;;;;;;;4.75;3.05;;;18.20;99.90;;;;;;5153703;27;20179;-54
2022/07/01 07:54:18;;;;;;;6.00;2.70;;;18.40;99.90;;;;;;5153238;27;20175;-54
2022/07/01 07:56:43;;;;;;;8.15;3.08;;;18.90;99.90;;;;;;5153067;27;20163;-54
2022/07/01 07:59:09;;;;;;;5.60;2.90;;;18.90;99.90;;;;;;5153056;27;20183;-54
2022/07/01 08:01:35;;;;;;;6.43;2.67;;;19.30;99.90;;;;;;5153008;27;20179;-54
2022/07/01 08:04:00;;;;;;;4.65;2.65;;;19.60;99.90;;;;;;5152992;27;20166;-54
2022/07/01 08:06:27;;;;;;;5.35;2.35;;;19.60;99.90;;;;;;5153166;27;20201;-54
2022/07/01 08:08:53;;;;;;;3.10;2.28;;;19.40;99.90;;;;;;5153298;27;20529;-54
2022/07/01 08:11:19;;;;;;;6.60;2.63;;;19.00;99.90;;;;;;5153334;27;20155;-54
2022/07/01 08:13:44;;;;;;;6.00;2.38;;;19.10;99.90;;;;;;5152929;27;20223;-54
2022/07/01 08:16:10;;;;;;;3.78;2.50;;;19.10;99.90;;;;;;5156700;27;20203;-54
2022/07/01 08:18:36;;;;;;;3.30;2.45;;;18.90;99.90;;;;;;5156642;27;20164;-54
2022/07/01 08:21:02;;;;;;;5.00;2.83;;;18.60;99.90;;;;;;5156646;27;20176;-54
2022/07/01 08:23:27;;;;;;;3.40;2.25;;;18.20;99.90;;;;;;5156581;27;20171;-54
2022/07/01 08:25:53;;;;;;;4.15;2.45;;;18.70;99.90;;;;;;5156616;27;20271;-54
2022/07/01 08:28:19;;;;;;;4.30;2.33;;;19.00;99.90;;;;;;5156750;27;20167;-54
2022/07/01 08:30:45;;;;;;;3.28;2.00;;;18.80;99.90;;;;;;5156394;27;20220;-54
2022/07/01 08:33:11;;;;;;;6.50;2.20;;;18.90;99.90;;;;;;5156337;27;20167;-54
2022/07/01 08:35:36;;;;;;;5.53;2.30;;;19.00;99.90;;;;;;5156316;27;20527;-55
2022/07/01 08:38:03;;;;;;;7.35;2.53;;;19.30;99.90;;;;;;5156227;27;20160;-54
2022/07/01 08:40:30;;;;;;;7.07;2.40;;;19.30;99.90;;;;;;5156471;27;20540;-54
2022/07/01 08:43:00;;;;;;;5.32;2.20;;;19.70;99.90;;;;;;5156129;27;20171;-54
2022/07/01 08:45:29;;;;;;;9.63;2.55;;;19.70;99.90;;;;;;5155958;27;20195;-54
2022/07/01 08:47:57;;;;;;;5.40;2.38;;;19.70;99.90;;;;;;5155991;27;20163;-54
2022/07/01 08:50:25;;;;;;;5.43;2.30;;;19.80;99.90;;;;;;5156358;27;20159;-54
2022/07/01 08:52:51;;;;;;;5.65;1.98;;;19.80;99.90;;;;;;5156224;27;20640;-54
2022/07/01 08:55:17;;;;;;;3.65;1.70;;;19.80;99.90;;;;;;5155949;27;20171;-54
2022/07/01 08:57:42;;;;;;;2.85;1.67;;;19.90;99.90;;;;;;5155869;27;20548;-54
2022/07/01 09:00:09;;;;;;;10.27;2.20;;;20.00;99.90;;;;;;5155783;27;20171;-54
2022/07/01 09:02:51;;;;;;;3.00;1.88;;;20.00;99.90;;;;;;5155881;27;20659;-54
2022/07/01 09:05:17;;;;;;;2.40;1.83;;;19.80;99.90;;;;;;5156068;27;20198;-54
2022/07/01 09:07:43;;;;;;;3.60;1.83;;;19.60;99.90;;;;;;5155910;27;20172;-54
2022/07/01 09:10:13;;;;;;;3.25;1.83;;;19.70;99.90;;;;;;5155738;27;20632;-54
2022/07/01 09:12:40;;;;;;;4.70;2.22;;;19.80;99.90;;;;;;5155554;27;20224;-54
2022/07/01 09:15:26;;;;;;;3.45;2.40;;;19.80;99.90;;;;;;5137572;27;20196;-54
2022/07/01 09:18:03;;;;;;;5.43;2.20;;;19.90;99.90;;;;;;5155985;27;20171;-54
2022/07/01 09:20:33;;;;;;;4.88;2.70;;;19.90;99.90;;;;;;5155490;27;20184;-54
2022/07/01 09:23:06;;;;;;;3.22;2.17;;;20.00;99.90;;;;;;5155640;27;20167;-54
2022/07/01 09:25:37;;;;;;;5.15;2.50;;;20.30;99.90;;;;;;5154866;27;20227;-55
2022/07/01 09:28:04;;;;;;;2.78;2.20;;;20.20;99.90;;;;;;5155322;27;20155;-54
2022/07/01 09:30:30;;;;;;;2.65;2.28;;;20.20;99.90;;;;;;5155191;27;20163;-55
2022/07/01 09:33:15;;;;;;;4.50;2.38;;;20.90;99.90;;;;;;5155286;27;20170;-54
2022/07/01 09:35:42;;;;;;;3.17;2.10;;;21.10;99.90;;;;;;5155193;27;20235;-54
2022/07/01 09:38:11;;;;;;;5.55;2.42;;;20.80;99.90;;;;;;5155061;27;20164;-54
2022/07/01 09:41:03;;;;;;;3.63;2.20;;;20.80;99.90;;;;;;5136454;27;20159;-54
2022/07/01 09:43:31;;;;;;;4.18;2.35;;;20.70;99.90;;;;;;5150169;27;20191;-54
2022/07/01 09:46:07;;;;;;;4.25;2.17;;;21.10;99.90;;;;;;5154728;27;20207;-54
2022/07/01 09:48:32;;;;;;;3.58;2.05;;;21.10;99.90;;;;;;5154935;27;20265;-55
2022/07/01 09:50:58;;;;;;;6.00;2.40;;;21.40;99.90;;;;;;5154804;27;20159;-55
2022/07/01 09:53:24;;;;;;;7.38;2.92;;;21.50;99.90;;;;;;5154815;27;20671;-54
2022/07/01 09:55:50;;;;;;;4.70;2.42;;;21.70;99.90;;;;;;5154942;27;20204;-54
2022/07/01 09:58:16;;;;;;;3.80;2.38;;;21.80;99.90;;;;;;5154603;27;20159;-54
2022/07/01 10:00:43;;;;;;;6.43;2.67;;;21.70;99.90;;;;;;5154564;27;20691;-54
2022/07/01 10:03:09;;;;;;;6.28;2.60;;;21.60;99.90;;;;;;5154526;27;20167;-54
2022/07/01 10:05:50;;;;;;;4.18;2.22;;;21.60;99.90;;;;;;5154510;27;20698;-54
2022/07/01 10:08:49;;;;;;;2.63;1.70;;;21.60;99.90;;;;;;5154501;27;20162;-54
2022/07/01 10:11:21;;;;;;;5.03;1.95;;;21.50;99.90;;;;;;5154420;27;20228;-54
2022/07/01 10:13:47;;;;;;;5.53;2.42;;;21.80;99.90;;;;;;5154645;27;20159;-54
2022/07/01 10:16:14;;;;;;;5.53;2.30;;;22.20;99.90;;;;;;5154263;27;20216;-54
2022/07/01 10:18:39;;;;;;;2.92;2.17;;;22.00;99.90;;;;;;5154517;27;20167;-54
2022/07/01 10:21:05;;;;;;;4.35;2.10;;;22.30;99.90;;;;;;5154201;27;20576;-54
2022/07/01 10:23:42;;;;;;;3.15;1.70;;;21.80;99.90;;;;;;5154259;27;20159;-54
2022/07/01 10:26:10;;;;;;;3.83;1.42;;;21.70;99.90;;;;;;5133410;27;20596;-54
2022/07/01 10:28:42;;;;;;;2.75;1.20;;;21.20;99.90;;;;;;5133686;27;20210;-54
2022/07/01 10:31:15;;;;;;;3.50;1.50;;;21.10;99.90;;;;;;5133295;27;20663;-54
2022/07/01 10:33:54;;;;;;;2.90;1.42;;;21.30;99.90;;;;;;5133408;27;20167;-54
2022/07/01 10:36:29;;;;;;;5.50;1.55;;;22.00;99.90;;;;;;5133493;27;20254;-54
2022/07/01 10:39:00;;;;;;;3.60;1.20;;;22.40;99.90;;;;;;5132755;27;20659;-53
2022/07/01 10:41:34;;;;;;;4.80;1.55;;;22.70;99.90;;;;;;5133096;27;20176;-53
2022/07/01 10:44:04;;;;;;;3.40;1.27;;;22.30;99.90;;;;;;5133430;27;20202;-53
2022/07/01 10:46:50;;;;;;;4.43;1.10;;;22.00;99.90;;;;;;5132922;27;20707;-54
2022/07/01 10:49:18;;;;;;;2.78;1.30;;;21.90;99.90;;;;;;5133286;27;20171;-53
2022/07/01 10:51:58;;;;;;;3.58;1.77;;;22.10;99.90;;;;;;5132964;27;20160;-53
2022/07/01 10:54:36;;;;;;;2.65;1.17;;;22.20;99.90;;;;;;5132891;27;20534;-53
2022/07/01 10:57:32;;;;;;;2.80;1.10;;;22.40;99.90;;;;;;5132927;27;20167;-53
2022/07/01 11:00:01;;;;;;;3.75;1.13;;;22.70;99.90;;;;;;5131802;27;20176;-53
2022/07/01 11:02:35;;;;;;;2.10;1.00;;;22.50;99.90;;;;;;5133176;27;20557;-53
2022/07/01 11:05:12;;;;;;;2.95;1.27;;;22.50;99.90;;;;;;5132836;27;20668;-54
2022/07/01 11:07:42;;;;;;;3.33;1.20;;;22.70;99.90;;;;;;5133097;27;20167;-54
2022/07/01 11:10:08;;;;;;;4.28;1.38;;;22.60;99.90;;;;;;5132710;27;20163;-54
2022/07/01 11:12:34;;;;;;;4.60;1.30;;;22.60;99.90;;;;;;5132787;27;20168;-54
2022/07/01 11:15:02;;;;;;;3.10;1.17;;;22.80;99.90;;;;;;5132689;28;20209;-54
2022/07/01 11:17:28;;;;;;;1.98;1.10;;;22.90;99.90;;;;;;5132673;27;20246;-54
2022/07/01 11:19:57;;;;;;;3.80;1.23;;;22.90;99.90;;;;;;5132728;28;20705;-53
2022/07/01 11:22:26;;;;;;;3.33;1.25;;;23.20;99.90;;;;;;5132925;27;20170;-54
2022/07/01 11:24:59;;;;;;;5.30;1.40;;;23.40;99.90;;;;;;5142883;27;20229;-54
2022/07/01 11:27:26;;;;;;;3.75;1.30;;;23.50;99.90;;;;;;5153245;27;20167;-54
2022/07/01 11:29:53;;;;;;;5.80;1.35;;;23.40;99.90;;;;;;5153563;27;20160;-54
2022/07/01 11:32:27;;;;;;;2.17;1.10;;;22.90;99.90;;;;;;5153915;27;20170;-54
2022/07/01 11:34:53;;;;;;;2.35;1.13;;;23.10;99.90;;;;;;5153600;27;20169;-54
2022/07/01 11:40:12;;;;;;;1.55;0.98;;;22.60;99.90;;;;;;5153329;27;20220;-54
2022/07/01 11:42:38;;;;;;;1.88;1.00;;;22.40;99.90;;;;;;5153255;27;20163;-53
2022/07/01 11:45:05;;;;;;;2.03;1.40;;;22.60;99.90;;;;;;5153104;27;20224;-54
2022/07/01 11:47:30;;;;;;;2.53;1.10;;;22.80;99.90;;;;;;5153183;27;20167;-53
2022/07/01 11:49:57;;;;;;;1.98;1.38;;;23.10;99.90;;;;;;5155018;27;20174;-54
2022/07/01 11:52:24;;;;;;;1.67;0.95;;;23.60;99.90;;;;;;5157168;27;20195;-54
2022/07/01 11:54:51;;;;;;;3.38;1.02;;;23.80;99.90;;;;;;5157527;27;20163;-54
2022/07/01 11:57:23;;;;;;;2.72;1.35;;;23.90;99.90;;;;;;5157038;27;20174;-54
2022/07/01 11:59:51;;;;;;;4.03;0.90;;;23.40;99.90;;;;;;5157304;27;20521;-53
2022/07/01 12:02:18;;;;;;;2.75;1.27;;;23.10;99.90;;;;;;5156906;27;20170;-54
2022/07/01 12:04:44;;;;;;;3.85;1.20;;;22.90;99.90;;;;;;5157067;27;20198;-54
2022/07/01 12:07:12;;;;;;;3.55;1.20;;;22.50;99.90;;;;;;5156751;27;20171;-54
2022/07/01 12:09:38;;;;;;;1.65;1.02;;;22.90;99.90;;;;;;5156928;27;20624;-54
2022/07/01 12:12:05;;;;;;;2.40;1.10;;;23.00;99.90;;;;;;5156714;27;20233;-53
2022/07/01 12:14:34;;;;;;;2.88;1.30;;;23.30;99.90;;;;;;5155448;27;20663;-55
2022/07/01 12:17:08;;;;;;;2.40;1.30;;;23.60;99.90;;;;;;5155666;27;20163;-58
2022/07/01 12:19:41;;;;;;;1.77;1.10;;;23.90;99.90;;;;;;5155611;27;20166;-58
2022/07/01 12:22:11;;;;;;;3.17;1.20;;;23.90;99.90;;;;;;5155381;27;20182;-62
2022/07/01 12:24:38;;;;;;;3.40;1.27;;;23.80;99.90;;;;;;5154967;27;20211;-62
2022/07/01 12:27:06;;;;;;;2.65;1.20;;;23.80;99.90;;;;;;5155176;27;20163;-55
2022/07/01 12:29:51;;;;;;;2.65;1.00;;;23.20;99.90;;;;;;5155211;27;20234;-59
2022/07/01 12:32:22;;;;;;;1.55;0.82;;;23.00;99.90;;;;;;5155093;27;20557;-55
2022/07/01 12:34:55;;;;;;;2.97;0.85;;;23.80;99.90;;;;;;5146778;27;20809;-52
2022/07/01 12:37:27;;;;;;;2.40;1.10;;;23.70;99.90;;;;;;5134652;27;20217;-58
2022/07/01 12:39:56;;;;;;;4.22;1.40;;;23.80;99.90;;;;;;5134033;27;20168;-53
2022/07/01 12:42:33;;;;;;;2.50;1.00;;;23.80;99.90;;;;;;5134498;27;20168;-50
2022/07/01 12:45:04;;;;;;;2.72;1.40;;;24.30;99.90;;;;;;5133946;27;20689;-59
2022/07/01 12:47:37;;;;;;;3.65;1.38;;;24.50;99.90;;;;;;5134084;27;20211;-54
2022/07/01 12:50:17;;;;;;;2.53;0.90;;;24.30;99.90;;;;;;5113379;28;20161;-52
2022/07/01 12:53:03;;;;;;;2.55;1.17;;;23.80;99.90;;;;;;5113401;28;21175;-56
2022/07/01 12:55:42;;;;;;;2.33;1.20;;;23.60;99.90;;;;;;5113303;28;20704;-56
2022/07/01 12:58:14;;;;;;;2.30;1.00;;;23.80;99.90;;;;;;5096503;28;20176;-55
2022/07/01 13:00:42;;;;;;;1.05;0.93;;;24.30;99.90;;;;;;5112834;28;20168;-51
2022/07/01 13:03:08;;;;;;;4.22;1.00;;;24.40;99.90;;;;;;5124397;27;20612;-47
2022/07/01 13:05:35;;;;;;;1.88;1.00;;;24.50;99.90;;;;;;5133671;27;20215;-49